sensor_id;sensor_type;location;lat;lon;timestamp;temperature;humidity
21857;DHT22;11093;50.862;4.328;2022-07-29T00:02:27;18.30;99.90
21857;DHT22;11093;50.862;4.328;2022-07-29T00:04:54;19.40;99.90
21857;DHT22;11093;50.862;4.328;2022-07-29T00:07:20;18.10;99.90
21857;DHT22;11093;50.862;4.328;2022-07-29T00:09:47;19.30;99.90
21857;DHT22;11093;50.862;4.328;2022-07-29T00:12:15;19.20;99.90
21857;DHT22;11093;50.862;4.328;2022-07-29T00:14:44;19.10;99.90
21857;DHT22;11093;50.862;4.328;2022-07-29T00:17:10;18.90;99.90
21857;DHT22;11093;50.862;4.328;2022-07-29T00:19:39;18.90;99.90
21857;DHT22;11093;50.862;4.328;2022-07-29T00:22:04;18.80;99.90
21857;DHT22;11093;50.862;4.328;2022-07-29T00:24:30;18.80;99.90
21857;DHT22;11093;50.862;4.328;2022-07-29T00:26:56;18.80;99.90
21857;DHT22;11093;50.862;4.328;2022-07-29T00:29:22;18.80;99.90
21857;DHT22;11093;50.862;4.328;2022-07-29T00:31:48;18.70;99.90
21857;DHT22;11093;50.862;4.328;2022-07-29T00:34:18;18.80;99.90
21857;DHT22;11093;50.862;4.328;2022-07-29T00:37:03;18.80;99.90
21857;DHT22;11093;50.862;4.328;2022-07-29T00:39:31;18.60;99.90
21857;DHT22;11093;50.862;4.328;2022-07-29T00:41:57;18.60;99.90
21857;DHT22;11093;50.862;4.328;2022-07-29T00:44:26;17.40;99.90
21857;DHT22;11093;50.862;4.328;2022-07-29T00:46:55;17.10;99.90
21857;DHT22;11093;50.862;4.328;2022-07-29T00:49:21;18.50;99.90
21857;DHT22;11093;50.862;4.328;2022-07-29T00:51:48;18.50;99.90
21857;DHT22;11093;50.862;4.328;2022-07-29T00:54:17;18.50;99.90
21857;DHT22;11093;50.862;4.328;2022-07-29T00:56:44;18.40;99.90
21857;DHT22;11093;50.862;4.328;2022-07-29T00:59:12;18.40;99.90
21857;DHT22;11093;50.862;4.328;2022-07-29T01:01:39;18.30;99.90
21857;DHT22;11093;50.862;4.328;2022-07-29T01:04:06;18.10;99.90
21857;DHT22;11093;50.862;4.328;2022-07-29T01:06:33;18.20;99.90
21857;DHT22;11093;50.862;4.328;2022-07-29T01:08:59;18.10;99.90
21857;DHT22;11093;50.862;4.328;2022-07-29T01:11:26;16.90;99.90
21857;DHT22;11093;50.862;4.328;2022-07-29T01:13:52;18.10;99.90
21857;DHT22;11093;50.862;4.328;2022-07-29T01:16:29;18.10;99.90
21857;DHT22;11093;50.862;4.328;2022-07-29T01:19:15;18.20;99.90
21857;DHT22;11093;50.862;4.328;2022-07-29T01:21:51;18.50;99.90
21857;DHT22;11093;50.862;4.328;2022-07-29T01:30:01;18.50;99.90
21857;DHT22;11093;50.862;4.328;2022-07-29T01:32:34;18.60;99.90
21857;DHT22;11093;50.862;4.328;2022-07-29T01:37:39;18.50;99.90
21857;DHT22;11093;50.862;4.328;2022-07-29T01:40:14;18.50;99.90
21857;DHT22;11093;50.862;4.328;2022-07-29T01:42:44;18.50;99.90
21857;DHT22;11093;50.862;4.328;2022-07-29T01:45:36;18.50;99.90
21857;DHT22;11093;50.862;4.328;2022-07-29T01:48:22;18.50;99.90
21857;DHT22;11093;50.862;4.328;2022-07-29T01:51:03;18.50;99.90
21857;DHT22;11093;50.862;4.328;2022-07-29T01:53:41;18.50;99.90
21857;DHT22;11093;50.862;4.328;2022-07-29T01:56:09;18.50;99.90
21857;DHT22;11093;50.862;4.328;2022-07-29T01:58:38;18.50;99.90
21857;DHT22;11093;50.862;4.328;2022-07-29T02:01:08;18.50;99.90
21857;DHT22;11093;50.862;4.328;2022-07-29T02:03:36;18.40;99.90
21857;DHT22;11093;50.862;4.328;2022-07-29T02:06:04;18.40;99.90
21857;DHT22;11093;50.862;4.328;2022-07-29T02:08:33;17.10;99.90
21857;DHT22;11093;50.862;4.328;2022-07-29T02:11:01;18.80;99.90
21857;DHT22;11093;50.862;4.328;2022-07-29T02:13:31;18.20;99.90
21857;DHT22;11093;50.862;4.328;2022-07-29T02:16:00;18.10;99.90
21857;DHT22;11093;50.862;4.328;2022-07-29T02:18:31;18.20;99.90
21857;DHT22;11093;50.862;4.328;2022-07-29T02:20:59;18.00;99.90
21857;DHT22;11093;50.862;4.328;2022-07-29T02:23:27;17.90;99.90
21857;DHT22;11093;50.862;4.328;2022-07-29T02:25:56;19.20;99.90
21857;DHT22;11093;50.862;4.328;2022-07-29T02:28:29;17.90;99.90
21857;DHT22;11093;50.862;4.328;2022-07-29T02:31:01;17.70;99.90
21857;DHT22;11093;50.862;4.328;2022-07-29T02:33:29;17.60;99.90
21857;DHT22;11093;50.862;4.328;2022-07-29T02:35:59;17.50;99.90
21857;DHT22;11093;50.862;4.328;2022-07-29T02:38:27;17.40;99.90
21857;DHT22;11093;50.862;4.328;2022-07-29T02:41:15;17.40;99.90
21857;DHT22;11093;50.862;4.328;2022-07-29T02:43:44;17.50;99.90
21857;DHT22;11093;50.862;4.328;2022-07-29T02:46:20;18.30;99.90
21857;DHT22;11093;50.862;4.328;2022-07-29T02:49:11;17.80;99.90
21857;DHT22;11093;50.862;4.328;2022-07-29T02:52:00;17.80;99.90
21857;DHT22;11093;50.862;4.328;2022-07-29T02:57:00;17.30;99.90
21857;DHT22;11093;50.862;4.328;2022-07-29T02:59:27;17.90;99.90
21857;DHT22;11093;50.862;4.328;2022-07-29T03:01:58;17.80;99.90
21857;DHT22;11093;50.862;4.328;2022-07-29T03:04:26;17.70;99.90
21857;DHT22;11093;50.862;4.328;2022-07-29T03:06:53;18.40;99.90
21857;DHT22;11093;50.862;4.328;2022-07-29T03:09:20;17.80;99.90
21857;DHT22;11093;50.862;4.328;2022-07-29T03:11:47;17.70;99.90
21857;DHT22;11093;50.862;4.328;2022-07-29T03:14:13;17.80;99.90
21857;DHT22;11093;50.862;4.328;2022-07-29T03:16:39;17.60;99.90
21857;DHT22;11093;50.862;4.328;2022-07-29T03:19:07;17.60;99.90
21857;DHT22;11093;50.862;4.328;2022-07-29T03:21:33;17.60;99.90
21857;DHT22;11093;50.862;4.328;2022-07-29T03:24:00;17.60;99.90
21857;DHT22;11093;50.862;4.328;2022-07-29T03:26:26;17.70;99.90
21857;DHT22;11093;50.862;4.328;2022-07-29T03:28:52;17.60;99.90
21857;DHT22;11093;50.862;4.328;2022-07-29T03:31:18;17.50;99.90
21857;DHT22;11093;50.862;4.328;2022-07-29T03:33:43;17.50;99.90
21857;DHT22;11093;50.862;4.328;2022-07-29T03:36:09;17.50;99.90
21857;DHT22;11093;50.862;4.328;2022-07-29T03:38:35;17.50;99.90
21857;DHT22;11093;50.862;4.328;2022-07-29T03:41:07;17.50;99.90
21857;DHT22;11093;50.862;4.328;2022-07-29T03:43:36;17.40;99.90
21857;DHT22;11093;50.862;4.328;2022-07-29T03:46:04;17.50;99.90
21857;DHT22;11093;50.862;4.328;2022-07-29T03:48:36;17.60;99.90
21857;DHT22;11093;50.862;4.328;2022-07-29T03:51:02;17.50;99.90
21857;DHT22;11093;50.862;4.328;2022-07-29T03:53:28;17.50;99.90
21857;DHT22;11093;50.862;4.328;2022-07-29T03:55:59;17.40;99.90
21857;DHT22;11093;50.862;4.328;2022-07-29T03:58:27;17.20;99.90
21857;DHT22;11093;50.862;4.328;2022-07-29T04:00:55;17.40;99.90
21857;DHT22;11093;50.862;4.328;2022-07-29T04:03:21;17.50;99.90
21857;DHT22;11093;50.862;4.328;2022-07-29T04:06:02;17.40;99.90
21857;DHT22;11093;50.862;4.328;2022-07-29T04:08:29;17.40;99.90
21857;DHT22;11093;50.862;4.328;2022-07-29T04:10:56;17.30;99.90
21857;DHT22;11093;50.862;4.328;2022-07-29T04:13:22;17.30;99.90
21857;DHT22;11093;50.862;4.328;2022-07-29T04:15:49;17.40;99.90
21857;DHT22;11093;50.862;4.328;2022-07-29T04:18:15;17.50;99.90
21857;DHT22;11093;50.862;4.328;2022-07-29T04:20:41;17.60;99.90
21857;DHT22;11093;50.862;4.328;2022-07-29T04:23:06;17.50;99.90
21857;DHT22;11093;50.862;4.328;2022-07-29T04:25:32;17.40;99.90
21857;DHT22;11093;50.862;4.328;2022-07-29T04:27:58;17.40;99.90
21857;DHT22;11093;50.862;4.328;2022-07-29T04:30:27;17.40;99.90
21857;DHT22;11093;50.862;4.328;2022-07-29T04:32:52;17.40;99.90
21857;DHT22;11093;50.862;4.328;2022-07-29T04:35:19;17.30;99.90
21857;DHT22;11093;50.862;4.328;2022-07-29T04:37:46;17.20;99.90
21857;DHT22;11093;50.862;4.328;2022-07-29T04:40:12;17.40;99.90
21857;DHT22;11093;50.862;4.328;2022-07-29T04:42:39;17.30;99.90
21857;DHT22;11093;50.862;4.328;2022-07-29T04:45:05;16.30;99.90
21857;DHT22;11093;50.862;4.328;2022-07-29T04:47:31;17.70;99.90
21857;DHT22;11093;50.862;4.328;2022-07-29T04:49:57;18.00;99.90
21857;DHT22;11093;50.862;4.328;2022-07-29T04:52:22;18.10;99.90
21857;DHT22;11093;50.862;4.328;2022-07-29T04:54:49;18.20;99.90
21857;DHT22;11093;50.862;4.328;2022-07-29T04:57:15;18.40;99.90
21857;DHT22;11093;50.862;4.328;2022-07-29T04:59:41;18.70;99.90
21857;DHT22;11093;50.862;4.328;2022-07-29T05:02:07;18.80;99.90
21857;DHT22;11093;50.862;4.328;2022-07-29T05:04:35;19.10;99.90
21857;DHT22;11093;50.862;4.328;2022-07-29T05:07:01;19.20;99.90
21857;DHT22;11093;50.862;4.328;2022-07-29T05:09:27;19.50;99.90
21857;DHT22;11093;50.862;4.328;2022-07-29T05:11:54;18.20;99.90
21857;DHT22;11093;50.862;4.328;2022-07-29T05:14:20;18.80;99.90
21857;DHT22;11093;50.862;4.328;2022-07-29T05:16:46;19.00;99.90
21857;DHT22;11093;50.862;4.328;2022-07-29T05:19:13;19.20;99.90
21857;DHT22;11093;50.862;4.328;2022-07-29T05:21:40;19.00;99.90
21857;DHT22;11093;50.862;4.328;2022-07-29T05:24:08;19.30;99.90
21857;DHT22;11093;50.862;4.328;2022-07-29T05:26:34;19.70;99.90
21857;DHT22;11093;50.862;4.328;2022-07-29T05:28:59;19.90;99.90
21857;DHT22;11093;50.862;4.328;2022-07-29T05:31:25;20.30;99.90
21857;DHT22;11093;50.862;4.328;2022-07-29T05:33:52;20.90;99.90
21857;DHT22;11093;50.862;4.328;2022-07-29T05:36:19;21.00;99.90
21857;DHT22;11093;50.862;4.328;2022-07-29T05:38:47;21.20;99.90
21857;DHT22;11093;50.862;4.328;2022-07-29T05:41:15;21.10;99.90
21857;DHT22;11093;50.862;4.328;2022-07-29T05:43:41;20.70;99.90
21857;DHT22;11093;50.862;4.328;2022-07-29T05:46:09;20.60;99.90
21857;DHT22;11093;50.862;4.328;2022-07-29T05:48:35;19.80;99.90
21857;DHT22;11093;50.862;4.328;2022-07-29T05:51:01;18.70;99.90
21857;DHT22;11093;50.862;4.328;2022-07-29T05:53:27;18.30;99.90
21857;DHT22;11093;50.862;4.328;2022-07-29T05:55:53;18.30;99.90
21857;DHT22;11093;50.862;4.328;2022-07-29T05:58:20;18.70;99.90
21857;DHT22;11093;50.862;4.328;2022-07-29T06:00:47;19.10;99.90
21857;DHT22;11093;50.862;4.328;2022-07-29T06:03:13;19.80;99.90
21857;DHT22;11093;50.862;4.328;2022-07-29T06:05:38;20.20;99.90
21857;DHT22;11093;50.862;4.328;2022-07-29T06:08:04;20.60;99.90
21857;DHT22;11093;50.862;4.328;2022-07-29T06:10:36;21.30;99.90
21857;DHT22;11093;50.862;4.328;2022-07-29T06:13:02;21.50;99.90
21857;DHT22;11093;50.862;4.328;2022-07-29T06:15:27;22.10;99.90
21857;DHT22;11093;50.862;4.328;2022-07-29T06:17:53;22.30;99.90
21857;DHT22;11093;50.862;4.328;2022-07-29T06:20:19;23.10;99.90
21857;DHT22;11093;50.862;4.328;2022-07-29T06:22:44;23.70;99.90
21857;DHT22;11093;50.862;4.328;2022-07-29T06:25:10;24.00;99.90
21857;DHT22;11093;50.862;4.328;2022-07-29T06:27:37;24.20;99.90
21857;DHT22;11093;50.862;4.328;2022-07-29T06:30:12;23.90;99.90
21857;DHT22;11093;50.862;4.328;2022-07-29T06:32:37;24.00;99.90
21857;DHT22;11093;50.862;4.328;2022-07-29T06:35:04;24.40;99.90
21857;DHT22;11093;50.862;4.328;2022-07-29T06:37:31;23.90;99.90
21857;DHT22;11093;50.862;4.328;2022-07-29T06:39:58;24.20;99.90
21857;DHT22;11093;50.862;4.328;2022-07-29T06:42:43;24.30;99.90
21857;DHT22;11093;50.862;4.328;2022-07-29T06:45:11;25.00;99.90
21857;DHT22;11093;50.862;4.328;2022-07-29T06:47:37;25.10;99.90
21857;DHT22;11093;50.862;4.328;2022-07-29T06:50:04;26.40;99.90
21857;DHT22;11093;50.862;4.328;2022-07-29T06:52:30;27.60;99.90
21857;DHT22;11093;50.862;4.328;2022-07-29T06:54:56;28.00;99.90
21857;DHT22;11093;50.862;4.328;2022-07-29T06:57:22;28.90;99.00
21857;DHT22;11093;50.862;4.328;2022-07-29T06:59:48;27.50;99.80
21857;DHT22;11093;50.862;4.328;2022-07-29T07:02:14;27.30;99.60
21857;DHT22;11093;50.862;4.328;2022-07-29T07:04:40;26.70;99.90
21857;DHT22;11093;50.862;4.328;2022-07-29T07:07:07;26.20;99.90
21857;DHT22;11093;50.862;4.328;2022-07-29T07:09:34;25.80;99.90
21857;DHT22;11093;50.862;4.328;2022-07-29T07:11:59;25.70;99.90
21857;DHT22;11093;50.862;4.328;2022-07-29T07:14:25;26.00;99.90
21857;DHT22;11093;50.862;4.328;2022-07-29T07:16:53;25.00;99.90
21857;DHT22;11093;50.862;4.328;2022-07-29T07:19:19;25.20;99.90
21857;DHT22;11093;50.862;4.328;2022-07-29T07:21:45;24.80;99.90
21857;DHT22;11093;50.862;4.328;2022-07-29T07:24:12;24.60;99.90
21857;DHT22;11093;50.862;4.328;2022-07-29T07:26:38;24.20;99.90
21857;DHT22;11093;50.862;4.328;2022-07-29T07:29:05;24.40;99.90
21857;DHT22;11093;50.862;4.328;2022-07-29T07:31:31;25.80;99.90
21857;DHT22;11093;50.862;4.328;2022-07-29T07:33:57;27.20;99.90
21857;DHT22;11093;50.862;4.328;2022-07-29T07:36:23;28.30;99.90
21857;DHT22;11093;50.862;4.328;2022-07-29T07:38:49;29.20;98.40
21857;DHT22;11093;50.862;4.328;2022-07-29T07:41:15;29.70;98.10
21857;DHT22;11093;50.862;4.328;2022-07-29T07:43:41;30.10;96.70
21857;DHT22;11093;50.862;4.328;2022-07-29T07:46:07;30.80;95.50
21857;DHT22;11093;50.862;4.328;2022-07-29T07:48:32;30.90;94.60
21857;DHT22;11093;50.862;4.328;2022-07-29T07:51:00;32.40;92.90
21857;DHT22;11093;50.862;4.328;2022-07-29T07:53:26;32.60;91.60
21857;DHT22;11093;50.862;4.328;2022-07-29T07:55:51;33.20;89.80
21857;DHT22;11093;50.862;4.328;2022-07-29T07:58:18;32.20;90.40
21857;DHT22;11093;50.862;4.328;2022-07-29T08:00:44;32.40;90.10
21857;DHT22;11093;50.862;4.328;2022-07-29T08:03:10;32.70;90.00
21857;DHT22;11093;50.862;4.328;2022-07-29T08:05:38;32.60;88.30
21857;DHT22;11093;50.862;4.328;2022-07-29T08:08:04;32.20;89.50
21857;DHT22;11093;50.862;4.328;2022-07-29T08:10:30;32.50;88.60
21857;DHT22;11093;50.862;4.328;2022-07-29T08:13:14;33.10;87.60
21857;DHT22;11093;50.862;4.328;2022-07-29T08:15:40;33.80;85.90
21857;DHT22;11093;50.862;4.328;2022-07-29T08:18:07;34.10;81.90
21857;DHT22;11093;50.862;4.328;2022-07-29T08:20:33;32.90;84.00
21857;DHT22;11093;50.862;4.328;2022-07-29T08:23:01;32.70;84.80
21857;DHT22;11093;50.862;4.328;2022-07-29T08:25:28;32.70;84.00
21857;DHT22;11093;50.862;4.328;2022-07-29T08:27:55;32.90;83.70
21857;DHT22;11093;50.862;4.328;2022-07-29T08:30:21;32.80;85.10
21857;DHT22;11093;50.862;4.328;2022-07-29T08:32:48;32.60;85.50
21857;DHT22;11093;50.862;4.328;2022-07-29T08:35:18;33.30;84.90
21857;DHT22;11093;50.862;4.328;2022-07-29T08:37:45;32.80;81.00
21857;DHT22;11093;50.862;4.328;2022-07-29T08:40:11;33.90;82.80
21857;DHT22;11093;50.862;4.328;2022-07-29T08:42:37;35.50;79.90
21857;DHT22;11093;50.862;4.328;2022-07-29T08:45:04;35.70;77.50
21857;DHT22;11093;50.862;4.328;2022-07-29T08:47:30;35.60;75.60
21857;DHT22;11093;50.862;4.328;2022-07-29T08:49:56;35.20;75.80
21857;DHT22;11093;50.862;4.328;2022-07-29T08:52:26;34.70;77.80
21857;DHT22;11093;50.862;4.328;2022-07-29T08:54:53;34.60;78.00
21857;DHT22;11093;50.862;4.328;2022-07-29T08:57:20;35.90;76.50
21857;DHT22;11093;50.862;4.328;2022-07-29T08:59:47;35.70;72.60
21857;DHT22;11093;50.862;4.328;2022-07-29T09:02:22;35.40;73.80
21857;DHT22;11093;50.862;4.328;2022-07-29T09:04:49;35.20;73.40
21857;DHT22;11093;50.862;4.328;2022-07-29T09:07:16;35.70;71.80
21857;DHT22;11093;50.862;4.328;2022-07-29T09:09:42;35.30;70.90
21857;DHT22;11093;50.862;4.328;2022-07-29T09:12:09;35.00;71.60
21857;DHT22;11093;50.862;4.328;2022-07-29T09:14:37;35.90;70.90
21857;DHT22;11093;50.862;4.328;2022-07-29T09:17:03;35.90;68.00
21857;DHT22;11093;50.862;4.328;2022-07-29T09:19:34;35.10;69.40
21857;DHT22;11093;50.862;4.328;2022-07-29T09:22:02;35.70;70.10
21857;DHT22;11093;50.862;4.328;2022-07-29T09:27:19;36.20;66.10
21857;DHT22;11093;50.862;4.328;2022-07-29T09:29:46;34.70;68.20
21857;DHT22;11093;50.862;4.328;2022-07-29T09:32:12;35.30;68.70
21857;DHT22;11093;50.862;4.328;2022-07-29T09:34:38;35.00;68.60
21857;DHT22;11093;50.862;4.328;2022-07-29T09:37:04;34.50;67.20
21857;DHT22;11093;50.862;4.328;2022-07-29T09:39:36;34.20;68.50
21857;DHT22;11093;50.862;4.328;2022-07-29T09:42:05;34.80;67.90
21857;DHT22;11093;50.862;4.328;2022-07-29T09:44:45;34.50;67.10
21857;DHT22;11093;50.862;4.328;2022-07-29T09:47:13;34.80;66.80
21857;DHT22;11093;50.862;4.328;2022-07-29T09:49:54;34.00;68.20
21857;DHT22;11093;50.862;4.328;2022-07-29T09:52:20;33.90;67.10
21857;DHT22;11093;50.862;4.328;2022-07-29T09:54:47;32.80;67.50
21857;DHT22;11093;50.862;4.328;2022-07-29T09:57:28;32.70;67.80
21857;DHT22;11093;50.862;4.328;2022-07-29T09:59:59;33.40;68.20
21857;DHT22;11093;50.862;4.328;2022-07-29T10:02:30;34.40;66.80
21857;DHT22;11093;50.862;4.328;2022-07-29T10:04:57;34.50;65.70
21857;DHT22;11093;50.862;4.328;2022-07-29T10:07:22;34.30;66.70
21857;DHT22;11093;50.862;4.328;2022-07-29T10:09:57;35.70;63.40
21857;DHT22;11093;50.862;4.328;2022-07-29T10:12:23;35.10;65.00
21857;DHT22;11093;50.862;4.328;2022-07-29T10:14:51;35.30;63.50
21857;DHT22;11093;50.862;4.328;2022-07-29T10:17:17;36.30;61.50
21857;DHT22;11093;50.862;4.328;2022-07-29T10:19:44;35.80;60.00
21857;DHT22;11093;50.862;4.328;2022-07-29T10:22:10;35.20;61.70
21857;DHT22;11093;50.862;4.328;2022-07-29T10:24:38;35.00;61.80
21857;DHT22;11093;50.862;4.328;2022-07-29T10:27:07;34.40;62.00
21857;DHT22;11093;50.862;4.328;2022-07-29T10:29:33;34.60;63.00
21857;DHT22;11093;50.862;4.328;2022-07-29T10:32:51;34.70;63.20
21857;DHT22;11093;50.862;4.328;2022-07-29T10:38:27;35.00;62.80
21857;DHT22;11093;50.862;4.328;2022-07-29T10:44:05;34.70;63.70
21857;DHT22;11093;50.862;4.328;2022-07-29T10:46:39;35.60;62.10
21857;DHT22;11093;50.862;4.328;2022-07-29T10:54:37;35.00;59.80
21857;DHT22;11093;50.862;4.328;2022-07-29T10:59:45;33.90;59.60
21857;DHT22;11093;50.862;4.328;2022-07-29T11:05:15;35.10;59.00
21857;DHT22;11093;50.862;4.328;2022-07-29T11:10:40;35.60;56.10
21857;DHT22;11093;50.862;4.328;2022-07-29T11:13:06;34.50;57.20
21857;DHT22;11093;50.862;4.328;2022-07-29T11:15:54;33.60;57.40
21857;DHT22;11093;50.862;4.328;2022-07-29T11:18:21;32.70;57.80
21857;DHT22;11093;50.862;4.328;2022-07-29T11:20:48;31.20;60.20
21857;DHT22;11093;50.862;4.328;2022-07-29T11:23:31;31.50;61.20
21857;DHT22;11093;50.862;4.328;2022-07-29T11:34:35;34.20;59.00
21857;DHT22;11093;50.862;4.328;2022-07-29T11:44:58;35.10;56.10
21857;DHT22;11093;50.862;4.328;2022-07-29T11:47:28;35.60;55.60
21857;DHT22;11093;50.862;4.328;2022-07-29T11:49:56;35.60;55.90
21857;DHT22;11093;50.862;4.328;2022-07-29T11:52:23;36.30;55.00
21857;DHT22;11093;50.862;4.328;2022-07-29T11:54:50;35.40;55.00
21857;DHT22;11093;50.862;4.328;2022-07-29T11:57:18;34.90;56.30
21857;DHT22;11093;50.862;4.328;2022-07-29T11:59:46;33.70;57.60
21857;DHT22;11093;50.862;4.328;2022-07-29T12:02:13;34.00;57.30
21857;DHT22;11093;50.862;4.328;2022-07-29T12:07:18;36.00;56.50
21857;DHT22;11093;50.862;4.328;2022-07-29T12:09:52;36.90;54.60
21857;DHT22;11093;50.862;4.328;2022-07-29T12:12:19;36.10;54.10
21857;DHT22;11093;50.862;4.328;2022-07-29T12:14:45;36.10;55.00
21857;DHT22;11093;50.862;4.328;2022-07-29T12:17:31;36.80;53.70
21857;DHT22;11093;50.862;4.328;2022-07-29T12:19:58;36.10;53.10
21857;DHT22;11093;50.862;4.328;2022-07-29T12:22:30;35.70;54.60
21857;DHT22;11093;50.862;4.328;2022-07-29T12:25:01;36.10;53.90
21857;DHT22;11093;50.862;4.328;2022-07-29T12:27:28;35.60;53.50
21857;DHT22;11093;50.862;4.328;2022-07-29T12:30:04;36.50;54.10
21857;DHT22;11093;50.862;4.328;2022-07-29T12:32:37;35.10;53.90
21857;DHT22;11093;50.862;4.328;2022-07-29T12:35:05;33.50;56.00
21857;DHT22;11093;50.862;4.328;2022-07-29T12:37:33;33.70;57.00
21857;DHT22;11093;50.862;4.328;2022-07-29T12:40:01;34.60;56.20
21857;DHT22;11093;50.862;4.328;2022-07-29T12:42:27;35.40;55.80
21857;DHT22;11093;50.862;4.328;2022-07-29T12:44:53;34.90;55.30
21857;DHT22;11093;50.862;4.328;2022-07-29T12:47:21;35.10;54.70
21857;DHT22;11093;50.862;4.328;2022-07-29T12:49:49;35.50;55.50
21857;DHT22;11093;50.862;4.328;2022-07-29T12:52:33;36.10;54.60
21857;DHT22;11093;50.862;4.328;2022-07-29T12:54:59;34.70;54.00
21857;DHT22;11093;50.862;4.328;2022-07-29T12:57:26;34.20;55.40
21857;DHT22;11093;50.862;4.328;2022-07-29T13:00:07;34.00;55.50
21857;DHT22;11093;50.862;4.328;2022-07-29T13:02:35;34.40;54.50
21857;DHT22;11093;50.862;4.328;2022-07-29T13:05:02;34.40;55.10
21857;DHT22;11093;50.862;4.328;2022-07-29T13:07:31;32.40;56.50
21857;DHT22;11093;50.862;4.328;2022-07-29T13:10:22;31.90;58.20
21857;DHT22;11093;50.862;4.328;2022-07-29T13:13:11;32.20;57.70
21857;DHT22;11093;50.862;4.328;2022-07-29T13:15:42;32.70;58.40
21857;DHT22;11093;50.862;4.328;2022-07-29T13:20:53;33.80;57.60
21857;DHT22;11093;50.862;4.328;2022-07-29T13:23:24;34.00;56.10
21857;DHT22;11093;50.862;4.328;2022-07-29T13:25:50;33.80;56.00
21857;DHT22;11093;50.862;4.328;2022-07-29T13:28:15;33.90;56.40
21857;DHT22;11093;50.862;4.328;2022-07-29T13:30:43;33.80;55.60
21857;DHT22;11093;50.862;4.328;2022-07-29T13:33:09;33.50;56.00
21857;DHT22;11093;50.862;4.328;2022-07-29T13:35:34;32.70;55.70
21857;DHT22;11093;50.862;4.328;2022-07-29T13:38:01;32.20;57.10
21857;DHT22;11093;50.862;4.328;2022-07-29T13:40:27;32.10;57.70
21857;DHT22;11093;50.862;4.328;2022-07-29T13:42:55;31.70;58.40
21857;DHT22;11093;50.862;4.328;2022-07-29T13:45:20;31.50;58.80
21857;DHT22;11093;50.862;4.328;2022-07-29T13:47:46;31.40;59.70
21857;DHT22;11093;50.862;4.328;2022-07-29T13:50:12;31.20;59.50
21857;DHT22;11093;50.862;4.328;2022-07-29T13:52:38;31.10;60.30
21857;DHT22;11093;50.862;4.328;2022-07-29T13:55:05;30.90;60.00
21857;DHT22;11093;50.862;4.328;2022-07-29T13:57:34;30.70;59.70
21857;DHT22;11093;50.862;4.328;2022-07-29T14:00:01;29.90;60.50
21857;DHT22;11093;50.862;4.328;2022-07-29T14:02:28;29.50;60.50
21857;DHT22;11093;50.862;4.328;2022-07-29T14:04:54;28.80;62.90
21857;DHT22;11093;50.862;4.328;2022-07-29T14:07:19;28.90;62.90
21857;DHT22;11093;50.862;4.328;2022-07-29T14:09:45;28.80;62.80
21857;DHT22;11093;50.862;4.328;2022-07-29T14:12:11;28.50;63.40
21857;DHT22;11093;50.862;4.328;2022-07-29T14:14:37;28.90;65.70
21857;DHT22;11093;50.862;4.328;2022-07-29T14:17:03;29.00;64.80
21857;DHT22;11093;50.862;4.328;2022-07-29T14:19:31;28.70;64.30
21857;DHT22;11093;50.862;4.328;2022-07-29T14:22:01;28.30;65.80
21857;DHT22;11093;50.862;4.328;2022-07-29T14:24:29;28.40;66.20
21857;DHT22;11093;50.862;4.328;2022-07-29T14:26:56;28.80;64.80
21857;DHT22;11093;50.862;4.328;2022-07-29T14:29:22;28.80;64.00
21857;DHT22;11093;50.862;4.328;2022-07-29T14:31:48;28.90;63.20
21857;DHT22;11093;50.862;4.328;2022-07-29T14:34:13;28.60;63.70
21857;DHT22;11093;50.862;4.328;2022-07-29T14:36:41;28.70;63.80
21857;DHT22;11093;50.862;4.328;2022-07-29T14:39:07;28.80;63.40
21857;DHT22;11093;50.862;4.328;2022-07-29T14:41:32;28.70;64.00
21857;DHT22;11093;50.862;4.328;2022-07-29T14:43:59;28.70;65.10
21857;DHT22;11093;50.862;4.328;2022-07-29T14:46:27;28.80;64.90
21857;DHT22;11093;50.862;4.328;2022-07-29T14:48:52;28.80;66.10
21857;DHT22;11093;50.862;4.328;2022-07-29T14:51:20;29.00;65.20
21857;DHT22;11093;50.862;4.328;2022-07-29T14:53:48;29.30;64.50
21857;DHT22;11093;50.862;4.328;2022-07-29T14:56:14;29.20;65.20
21857;DHT22;11093;50.862;4.328;2022-07-29T14:58:41;29.40;64.00
21857;DHT22;11093;50.862;4.328;2022-07-29T15:01:07;29.40;64.60
21857;DHT22;11093;50.862;4.328;2022-07-29T15:03:34;29.20;63.90
21857;DHT22;11093;50.862;4.328;2022-07-29T15:06:00;28.90;63.60
21857;DHT22;11093;50.862;4.328;2022-07-29T15:08:28;28.00;64.00
21857;DHT22;11093;50.862;4.328;2022-07-29T15:10:56;28.00;65.80
21857;DHT22;11093;50.862;4.328;2022-07-29T15:13:25;27.90;65.30
21857;DHT22;11093;50.862;4.328;2022-07-29T15:15:51;28.20;65.80
21857;DHT22;11093;50.862;4.328;2022-07-29T15:18:18;28.10;65.80
21857;DHT22;11093;50.862;4.328;2022-07-29T15:20:45;27.70;66.50
21857;DHT22;11093;50.862;4.328;2022-07-29T15:23:17;27.50;67.30
21857;DHT22;11093;50.862;4.328;2022-07-29T15:25:44;26.70;67.00
21857;DHT22;11093;50.862;4.328;2022-07-29T15:28:12;27.60;67.90
21857;DHT22;11093;50.862;4.328;2022-07-29T15:30:38;27.60;66.90
21857;DHT22;11093;50.862;4.328;2022-07-29T15:33:11;27.90;66.80
21857;DHT22;11093;50.862;4.328;2022-07-29T15:35:47;27.70;67.70
21857;DHT22;11093;50.862;4.328;2022-07-29T15:38:15;27.10;67.70
21857;DHT22;11093;50.862;4.328;2022-07-29T15:40:41;27.20;66.90
21857;DHT22;11093;50.862;4.328;2022-07-29T15:43:12;27.50;67.10
21857;DHT22;11093;50.862;4.328;2022-07-29T15:45:40;27.60;67.00
21857;DHT22;11093;50.862;4.328;2022-07-29T15:48:07;27.80;66.90
21857;DHT22;11093;50.862;4.328;2022-07-29T15:50:33;27.70;66.20
21857;DHT22;11093;50.862;4.328;2022-07-29T15:53:27;28.50;67.20
21857;DHT22;11093;50.862;4.328;2022-07-29T15:56:16;27.80;66.70
21857;DHT22;11093;50.862;4.328;2022-07-29T15:58:42;27.90;66.60
21857;DHT22;11093;50.862;4.328;2022-07-29T16:01:08;28.00;66.10
21857;DHT22;11093;50.862;4.328;2022-07-29T16:03:39;27.90;65.90
21857;DHT22;11093;50.862;4.328;2022-07-29T16:06:07;28.00;66.20
21857;DHT22;11093;50.862;4.328;2022-07-29T16:08:34;27.80;66.20
21857;DHT22;11093;50.862;4.328;2022-07-29T16:11:01;28.00;65.90
21857;DHT22;11093;50.862;4.328;2022-07-29T16:13:28;27.70;66.40
21857;DHT22;11093;50.862;4.328;2022-07-29T16:15:54;27.70;67.20
21857;DHT22;11093;50.862;4.328;2022-07-29T16:18:21;27.60;67.60
21857;DHT22;11093;50.862;4.328;2022-07-29T16:20:53;27.30;68.30
21857;DHT22;11093;50.862;4.328;2022-07-29T16:23:21;27.30;68.60
21857;DHT22;11093;50.862;4.328;2022-07-29T16:25:50;27.40;68.90
21857;DHT22;11093;50.862;4.328;2022-07-29T16:28:40;27.60;68.10
21857;DHT22;11093;50.862;4.328;2022-07-29T16:31:10;27.60;66.50
21857;DHT22;11093;50.862;4.328;2022-07-29T16:33:36;27.60;67.00
21857;DHT22;11093;50.862;4.328;2022-07-29T16:36:02;27.30;68.70